sensor_id;sensor_type;location;lat;lon;timestamp;P1;durP1;ratioP1;P2;durP2;ratioP2
19388;SDS011;9830;41.876;23.474;2022-08-19T00:01:39;1.47;;;1.37;;
19388;SDS011;9830;41.876;23.474;2022-08-19T00:04:07;1.60;;;0.83;;
19388;SDS011;9830;41.876;23.474;2022-08-19T00:06:35;4.73;;;1.63;;
19388;SDS011;9830;41.876;23.474;2022-08-19T00:09:04;0.90;;;0.90;;
19388;SDS011;9830;41.876;23.474;2022-08-19T00:11:31;18.83;;;1.63;;
19388;SDS011;9830;41.876;23.474;2022-08-19T00:13:57;0.50;;;0.50;;
19388;SDS011;9830;41.876;23.474;2022-08-19T00:16:24;1.50;;;1.40;;
19388;SDS011;9830;41.876;23.474;2022-08-19T00:18:50;0.47;;;0.47;;
19388;SDS011;9830;41.876;23.474;2022-08-19T00:21:16;0.30;;;0.30;;
19388;SDS011;9830;41.876;23.474;2022-08-19T00:23:42;0.87;;;0.87;;
19388;SDS011;9830;41.876;23.474;2022-08-19T00:26:09;1.77;;;1.20;;
19388;SDS011;9830;41.876;23.474;2022-08-19T00:28:35;1.23;;;1.13;;
19388;SDS011;9830;41.876;23.474;2022-08-19T00:31:03;0.83;;;0.77;;
19388;SDS011;9830;41.876;23.474;2022-08-19T00:33:29;0.53;;;0.53;;
19388;SDS011;9830;41.876;23.474;2022-08-19T00:36:03;2.77;;;2.00;;
19388;SDS011;9830;41.876;23.474;2022-08-19T00:38:31;0.70;;;0.70;;
19388;SDS011;9830;41.876;23.474;2022-08-19T00:40:57;2.77;;;1.83;;
19388;SDS011;9830;41.876;23.474;2022-08-19T00:43:24;1.63;;;1.53;;
19388;SDS011;9830;41.876;23.474;2022-08-19T00:45:51;1.50;;;1.40;;
19388;SDS011;9830;41.876;23.474;2022-08-19T00:48:17;1.23;;;0.77;;
19388;SDS011;9830;41.876;23.474;2022-08-19T00:50:44;0.67;;;0.67;;
19388;SDS011;9830;41.876;23.474;2022-08-19T00:53:13;1.53;;;1.43;;
19388;SDS011;9830;41.876;23.474;2022-08-19T00:55:42;1.27;;;1.17;;
19388;SDS011;9830;41.876;23.474;2022-08-19T00:58:12;0.80;;;0.80;;
19388;SDS011;9830;41.876;23.474;2022-08-19T01:00:40;2.47;;;1.70;;
19388;SDS011;9830;41.876;23.474;2022-08-19T01:03:07;1.23;;;1.13;;
19388;SDS011;9830;41.876;23.474;2022-08-19T01:05:35;1.90;;;1.80;;
19388;SDS011;9830;41.876;23.474;2022-08-19T01:08:03;0.73;;;0.73;;
19388;SDS011;9830;41.876;23.474;2022-08-19T01:10:32;1.17;;;1.17;;
19388;SDS011;9830;41.876;23.474;2022-08-19T01:13:02;2.23;;;2.03;;
19388;SDS011;9830;41.876;23.474;2022-08-19T01:15:31;0.77;;;0.60;;
19388;SDS011;9830;41.876;23.474;2022-08-19T01:18:04;1.30;;;1.10;;
19388;SDS011;9830;41.876;23.474;2022-08-19T01:20:33;0.93;;;0.90;;
19388;SDS011;9830;41.876;23.474;2022-08-19T01:22:59;2.30;;;1.43;;
19388;SDS011;9830;41.876;23.474;2022-08-19T01:25:42;3.50;;;1.03;;
19388;SDS011;9830;41.876;23.474;2022-08-19T01:28:15;1.30;;;0.60;;
19388;SDS011;9830;41.876;23.474;2022-08-19T01:30:47;0.87;;;0.80;;
19388;SDS011;9830;41.876;23.474;2022-08-19T01:33:13;0.97;;;0.97;;
19388;SDS011;9830;41.876;23.474;2022-08-19T01:35:40;0.53;;;0.53;;
19388;SDS011;9830;41.876;23.474;2022-08-19T01:38:08;2.93;;;1.23;;
19388;SDS011;9830;41.876;23.474;2022-08-19T01:40:43;0.93;;;0.93;;
19388;SDS011;9830;41.876;23.474;2022-08-19T01:43:09;1.00;;;1.00;;
19388;SDS011;9830;41.876;23.474;2022-08-19T01:45:35;1.20;;;1.20;;
19388;SDS011;9830;41.876;23.474;2022-08-19T01:48:02;1.33;;;1.23;;
19388;SDS011;9830;41.876;23.474;2022-08-19T01:50:30;4.00;;;1.97;;
19388;SDS011;9830;41.876;23.474;2022-08-19T01:52:57;0.83;;;0.83;;
19388;SDS011;9830;41.876;23.474;2022-08-19T01:55:24;1.43;;;1.33;;
19388;SDS011;9830;41.876;23.474;2022-08-19T01:57:58;1.40;;;1.30;;
19388;SDS011;9830;41.876;23.474;2022-08-19T02:00:28;1.50;;;1.40;;
19388;SDS011;9830;41.876;23.474;2022-08-19T02:02:55;1.73;;;1.17;;
19388;SDS011;9830;41.876;23.474;2022-08-19T02:05:21;1.40;;;1.40;;
19388;SDS011;9830;41.876;23.474;2022-08-19T02:07:48;0.83;;;0.83;;
19388;SDS011;9830;41.876;23.474;2022-08-19T02:10:19;1.50;;;1.43;;
19388;SDS011;9830;41.876;23.474;2022-08-19T02:12:46;1.30;;;1.27;;
19388;SDS011;9830;41.876;23.474;2022-08-19T02:15:12;1.33;;;1.23;;
19388;SDS011;9830;41.876;23.474;2022-08-19T02:17:38;1.20;;;1.20;;
19388;SDS011;9830;41.876;23.474;2022-08-19T02:20:05;1.03;;;1.03;;
19388;SDS011;9830;41.876;23.474;2022-08-19T02:22:32;1.17;;;1.00;;
19388;SDS011;9830;41.876;23.474;2022-08-19T02:24:58;6.53;;;2.20;;
19388;SDS011;9830;41.876;23.474;2022-08-19T02:27:24;0.53;;;0.27;;
19388;SDS011;9830;41.876;23.474;2022-08-19T02:29:51;0.83;;;0.83;;
19388;SDS011;9830;41.876;23.474;2022-08-19T02:32:18;0.97;;;0.97;;
19388;SDS011;9830;41.876;23.474;2022-08-19T02:34:47;3.50;;;1.07;;
19388;SDS011;9830;41.876;23.474;2022-08-19T02:37:13;2.23;;;2.10;;
19388;SDS011;9830;41.876;23.474;2022-08-19T02:40:18;0.77;;;0.77;;
19388;SDS011;9830;41.876;23.474;2022-08-19T02:42:44;1.77;;;1.40;;
19388;SDS011;9830;41.876;23.474;2022-08-19T02:45:11;1.30;;;1.30;;
19388;SDS011;9830;41.876;23.474;2022-08-19T02:47:38;1.07;;;1.07;;
19388;SDS011;9830;41.876;23.474;2022-08-19T02:50:05;2.40;;;1.40;;
19388;SDS011;9830;41.876;23.474;2022-08-19T02:52:31;0.70;;;0.70;;
19388;SDS011;9830;41.876;23.474;2022-08-19T02:54:58;1.50;;;1.23;;
19388;SDS011;9830;41.876;23.474;2022-08-19T02:57:24;1.67;;;1.50;;
19388;SDS011;9830;41.876;23.474;2022-08-19T02:59:50;1.10;;;1.00;;
19388;SDS011;9830;41.876;23.474;2022-08-19T03:02:15;1.50;;;1.40;;
19388;SDS011;9830;41.876;23.474;2022-08-19T03:04:41;1.03;;;1.03;;
19388;SDS011;9830;41.876;23.474;2022-08-19T03:07:07;0.47;;;0.47;;
19388;SDS011;9830;41.876;23.474;2022-08-19T03:09:36;1.70;;;1.23;;
19388;SDS011;9830;41.876;23.474;2022-08-19T03:12:03;2.00;;;1.60;;
19388;SDS011;9830;41.876;23.474;2022-08-19T03:14:30;1.30;;;1.03;;
19388;SDS011;9830;41.876;23.474;2022-08-19T03:16:57;1.20;;;1.10;;
19388;SDS011;9830;41.876;23.474;2022-08-19T03:19:23;1.67;;;1.57;;
19388;SDS011;9830;41.876;23.474;2022-08-19T03:21:49;1.17;;;1.07;;
19388;SDS011;9830;41.876;23.474;2022-08-19T03:24:16;1.37;;;1.10;;
19388;SDS011;9830;41.876;23.474;2022-08-19T03:26:46;1.47;;;0.83;;
19388;SDS011;9830;41.876;23.474;2022-08-19T03:29:14;0.87;;;0.87;;
19388;SDS011;9830;41.876;23.474;2022-08-19T03:31:43;1.30;;;1.20;;
19388;SDS011;9830;41.876;23.474;2022-08-19T03:34:10;1.23;;;1.20;;
19388;SDS011;9830;41.876;23.474;2022-08-19T03:36:37;1.93;;;1.47;;
19388;SDS011;9830;41.876;23.474;2022-08-19T03:39:03;2.10;;;2.00;;
19388;SDS011;9830;41.876;23.474;2022-08-19T03:41:30;1.53;;;1.47;;
19388;SDS011;9830;41.876;23.474;2022-08-19T03:43:58;0.30;;;0.27;;
19388;SDS011;9830;41.876;23.474;2022-08-19T03:46:25;1.17;;;1.10;;
19388;SDS011;9830;41.876;23.474;2022-08-19T03:48:53;1.53;;;1.47;;
19388;SDS011;9830;41.876;23.474;2022-08-19T03:51:31;1.77;;;0.97;;
19388;SDS011;9830;41.876;23.474;2022-08-19T03:54:00;2.23;;;1.10;;
19388;SDS011;9830;41.876;23.474;2022-08-19T03:56:27;3.20;;;1.13;;
19388;SDS011;9830;41.876;23.474;2022-08-19T03:58:54;1.10;;;1.10;;
19388;SDS011;9830;41.876;23.474;2022-08-19T04:01:23;1.37;;;1.27;;
19388;SDS011;9830;41.876;23.474;2022-08-19T04:03:51;2.00;;;1.10;;
19388;SDS011;9830;41.876;23.474;2022-08-19T04:06:19;0.93;;;0.93;;
19388;SDS011;9830;41.876;23.474;2022-08-19T04:08:47;1.13;;;1.13;;
19388;SDS011;9830;41.876;23.474;2022-08-19T04:11:16;1.47;;;1.27;;
19388;SDS011;9830;41.876;23.474;2022-08-19T04:13:46;0.87;;;0.87;;
19388;SDS011;9830;41.876;23.474;2022-08-19T04:16:12;4.80;;;2.00;;
19388;SDS011;9830;41.876;23.474;2022-08-19T04:18:39;0.97;;;0.97;;
19388;SDS011;9830;41.876;23.474;2022-08-19T04:21:05;2.37;;;1.83;;
19388;SDS011;9830;41.876;23.474;2022-08-19T04:23:32;1.23;;;1.23;;
19388;SDS011;9830;41.876;23.474;2022-08-19T04:25:59;1.27;;;1.23;;
19388;SDS011;9830;41.876;23.474;2022-08-19T04:28:24;6.67;;;2.27;;
19388;SDS011;9830;41.876;23.474;2022-08-19T04:30:51;0.90;;;0.90;;
19388;SDS011;9830;41.876;23.474;2022-08-19T04:33:20;1.00;;;1.00;;
19388;SDS011;9830;41.876;23.474;2022-08-19T04:35:48;1.57;;;1.27;;
19388;SDS011;9830;41.876;23.474;2022-08-19T04:38:16;1.70;;;1.53;;
19388;SDS011;9830;41.876;23.474;2022-08-19T04:40:45;0.77;;;0.77;;
19388;SDS011;9830;41.876;23.474;2022-08-19T04:43:31;5.37;;;1.00;;
19388;SDS011;9830;41.876;23.474;2022-08-19T04:45:57;1.37;;;1.27;;
19388;SDS011;9830;41.876;23.474;2022-08-19T04:48:23;1.15;;;1.15;;
19388;SDS011;9830;41.876;23.474;2022-08-19T04:50:52;1.95;;;1.33;;
19388;SDS011;9830;41.876;23.474;2022-08-19T04:53:29;1.42;;;1.33;;
19388;SDS011;9830;41.876;23.474;2022-08-19T04:55:57;1.42;;;1.08;;
19388;SDS011;9830;41.876;23.474;2022-08-19T04:58:24;1.92;;;1.83;;
19388;SDS011;9830;41.876;23.474;2022-08-19T05:00:51;1.27;;;1.27;;
19388;SDS011;9830;41.876;23.474;2022-08-19T05:03:18;2.97;;;2.78;;
19388;SDS011;9830;41.876;23.474;2022-08-19T05:05:44;2.83;;;1.88;;
19388;SDS011;9830;41.876;23.474;2022-08-19T05:08:13;2.30;;;2.10;;
19388;SDS011;9830;41.876;23.474;2022-08-19T05:10:44;2.83;;;2.20;;
19388;SDS011;9830;41.876;23.474;2022-08-19T05:13:11;3.35;;;2.92;;
19388;SDS011;9830;41.876;23.474;2022-08-19T05:15:36;2.70;;;2.55;;
19388;SDS011;9830;41.876;23.474;2022-08-19T05:18:03;2.72;;;2.53;;
19388;SDS011;9830;41.876;23.474;2022-08-19T05:20:47;3.45;;;2.58;;
19388;SDS011;9830;41.876;23.474;2022-08-19T05:23:31;4.95;;;3.67;;
19388;SDS011;9830;41.876;23.474;2022-08-19T05:25:57;22.65;;;5.00;;
19388;SDS011;9830;41.876;23.474;2022-08-19T05:28:22;5.22;;;4.05;;
19388;SDS011;9830;41.876;23.474;2022-08-19T05:30:48;6.95;;;4.68;;
19388;SDS011;9830;41.876;23.474;2022-08-19T05:33:16;5.50;;;4.13;;
19388;SDS011;9830;41.876;23.474;2022-08-19T05:35:42;4.03;;;3.75;;
19388;SDS011;9830;41.876;23.474;2022-08-19T05:38:09;4.88;;;3.15;;
19388;SDS011;9830;41.876;23.474;2022-08-19T05:40:36;5.15;;;4.70;;
19388;SDS011;9830;41.876;23.474;2022-08-19T05:43:04;9.90;;;4.75;;
19388;SDS011;9830;41.876;23.474;2022-08-19T05:45:31;5.45;;;4.68;;
19388;SDS011;9830;41.876;23.474;2022-08-19T05:47:57;8.00;;;5.10;;
19388;SDS011;9830;41.876;23.474;2022-08-19T05:50:23;6.53;;;4.13;;
19388;SDS011;9830;41.876;23.474;2022-08-19T05:52:51;4.38;;;4.00;;
19388;SDS011;9830;41.876;23.474;2022-08-19T05:55:17;5.78;;;5.28;;
19388;SDS011;9830;41.876;23.474;2022-08-19T05:57:45;6.50;;;5.00;;
19388;SDS011;9830;41.876;23.474;2022-08-19T06:00:11;5.07;;;4.68;;
19388;SDS011;9830;41.876;23.474;2022-08-19T06:02:37;9.80;;;4.93;;
19388;SDS011;9830;41.876;23.474;2022-08-19T06:05:04;5.30;;;4.80;;
19388;SDS011;9830;41.876;23.474;2022-08-19T06:07:32;5.32;;;4.93;;
19388;SDS011;9830;41.876;23.474;2022-08-19T06:09:58;7.80;;;5.55;;
19388;SDS011;9830;41.876;23.474;2022-08-19T06:12:23;6.47;;;5.60;;
19388;SDS011;9830;41.876;23.474;2022-08-19T06:14:54;4.75;;;4.40;;
19388;SDS011;9830;41.876;23.474;2022-08-19T06:17:20;8.82;;;6.72;;
19388;SDS011;9830;41.876;23.474;2022-08-19T06:19:49;5.30;;;4.82;;
19388;SDS011;9830;41.876;23.474;2022-08-19T06:22:15;8.02;;;7.22;;
19388;SDS011;9830;41.876;23.474;2022-08-19T06:24:41;6.45;;;5.78;;
19388;SDS011;9830;41.876;23.474;2022-08-19T06:27:07;6.20;;;5.60;;
19388;SDS011;9830;41.876;23.474;2022-08-19T06:29:33;10.77;;;8.48;;
19388;SDS011;9830;41.876;23.474;2022-08-19T06:32:00;20.00;;;10.15;;
19388;SDS011;9830;41.876;23.474;2022-08-19T06:34:28;10.93;;;6.40;;
19388;SDS011;9830;41.876;23.474;2022-08-19T06:36:56;22.85;;;9.70;;
19388;SDS011;9830;41.876;23.474;2022-08-19T06:39:26;16.02;;;6.80;;
19388;SDS011;9830;41.876;23.474;2022-08-19T06:41:55;8.65;;;6.72;;
19388;SDS011;9830;41.876;23.474;2022-08-19T06:44:24;12.68;;;7.15;;
19388;SDS011;9830;41.876;23.474;2022-08-19T06:46:52;8.93;;;6.80;;
19388;SDS011;9830;41.876;23.474;2022-08-19T06:49:19;5.30;;;4.00;;
19388;SDS011;9830;41.876;23.474;2022-08-19T06:51:45;9.02;;;3.83;;
19388;SDS011;9830;41.876;23.474;2022-08-19T06:54:12;3.45;;;3.15;;
19388;SDS011;9830;41.876;23.474;2022-08-19T06:56:38;4.57;;;2.85;;
19388;SDS011;9830;41.876;23.474;2022-08-19T06:59:09;3.72;;;3.45;;
19388;SDS011;9830;41.876;23.474;2022-08-19T07:01:37;3.55;;;3.28;;
19388;SDS011;9830;41.876;23.474;2022-08-19T07:04:08;4.10;;;2.85;;
19388;SDS011;9830;41.876;23.474;2022-08-19T07:06:35;2.13;;;1.85;;
19388;SDS011;9830;41.876;23.474;2022-08-19T07:09:05;2.90;;;2.67;;
19388;SDS011;9830;41.876;23.474;2022-08-19T07:11:32;2.10;;;2.00;;
19388;SDS011;9830;41.876;23.474;2022-08-19T07:13:58;2.53;;;2.38;;
19388;SDS011;9830;41.876;23.474;2022-08-19T07:16:25;5.95;;;3.28;;
19388;SDS011;9830;41.876;23.474;2022-08-19T07:18:52;3.17;;;2.92;;
19388;SDS011;9830;41.876;23.474;2022-08-19T07:21:26;4.55;;;3.22;;
19388;SDS011;9830;41.876;23.474;2022-08-19T07:23:55;3.22;;;2.92;;
19388;SDS011;9830;41.876;23.474;2022-08-19T07:26:23;3.75;;;3.40;;
19388;SDS011;9830;41.876;23.474;2022-08-19T07:28:51;3.60;;;2.75;;
19388;SDS011;9830;41.876;23.474;2022-08-19T07:31:19;3.25;;;3.03;;
19388;SDS011;9830;41.876;23.474;2022-08-19T07:33:48;3.08;;;2.78;;
19388;SDS011;9830;41.876;23.474;2022-08-19T07:36:17;2.83;;;2.63;;
19388;SDS011;9830;41.876;23.474;2022-08-19T07:38:45;4.38;;;2.97;;
19388;SDS011;9830;41.876;23.474;2022-08-19T07:41:15;3.20;;;2.80;;
19388;SDS011;9830;41.876;23.474;2022-08-19T07:43:43;4.15;;;3.05;;
19388;SDS011;9830;41.876;23.474;2022-08-19T07:46:09;2.72;;;2.63;;
19388;SDS011;9830;41.876;23.474;2022-08-19T07:48:37;2.25;;;2.15;;
19388;SDS011;9830;41.876;23.474;2022-08-19T07:51:04;2.20;;;2.00;;
19388;SDS011;9830;41.876;23.474;2022-08-19T07:53:31;3.03;;;2.17;;
19388;SDS011;9830;41.876;23.474;2022-08-19T07:56:00;2.35;;;2.20;;
19388;SDS011;9830;41.876;23.474;2022-08-19T07:58:27;3.03;;;2.55;;
19388;SDS011;9830;41.876;23.474;2022-08-19T08:00:53;1.90;;;1.80;;
19388;SDS011;9830;41.876;23.474;2022-08-19T08:03:20;2.70;;;2.50;;
19388;SDS011;9830;41.876;23.474;2022-08-19T08:06:07;1.52;;;1.50;;
19388;SDS011;9830;41.876;23.474;2022-08-19T08:08:51;1.42;;;1.42;;
19388;SDS011;9830;41.876;23.474;2022-08-19T08:11:35;3.13;;;2.92;;
19388;SDS011;9830;41.876;23.474;2022-08-19T08:14:01;2.47;;;2.28;;
19388;SDS011;9830;41.876;23.474;2022-08-19T08:16:27;1.63;;;1.60;;
19388;SDS011;9830;41.876;23.474;2022-08-19T08:18:55;2.28;;;2.13;;
19388;SDS011;9830;41.876;23.474;2022-08-19T08:21:20;2.10;;;2.00;;
19388;SDS011;9830;41.876;23.474;2022-08-19T08:23:46;2.35;;;2.10;;
19388;SDS011;9830;41.876;23.474;2022-08-19T08:26:12;1.63;;;1.63;;
19388;SDS011;9830;41.876;23.474;2022-08-19T08:28:39;3.38;;;2.88;;
19388;SDS011;9830;41.876;23.474;2022-08-19T08:31:04;2.22;;;2.13;;
19388;SDS011;9830;41.876;23.474;2022-08-19T08:33:30;2.25;;;2.15;;
19388;SDS011;9830;41.876;23.474;2022-08-19T08:35:56;4.35;;;2.92;;
19388;SDS011;9830;41.876;23.474;2022-08-19T08:38:22;2.22;;;2.13;;
19388;SDS011;9830;41.876;23.474;2022-08-19T08:40:49;1.48;;;1.48;;
19388;SDS011;9830;41.876;23.474;2022-08-19T08:54:20;2.05;;;1.95;;
19388;SDS011;9830;41.876;23.474;2022-08-19T08:56:48;2.30;;;2.10;;
19388;SDS011;9830;41.876;23.474;2022-08-19T08:59:20;1.30;;;1.25;;
19388;SDS011;9830;41.876;23.474;2022-08-19T09:01:53;1.58;;;1.58;;
19388;SDS011;9830;41.876;23.474;2022-08-19T09:04:19;1.70;;;1.70;;
19388;SDS011;9830;41.876;23.474;2022-08-19T09:09:43;2.22;;;2.05;;
19388;SDS011;9830;41.876;23.474;2022-08-19T09:17:14;1.90;;;1.52;;
19388;SDS011;9830;41.876;23.474;2022-08-19T09:22:33;1.05;;;1.05;;
19388;SDS011;9830;41.876;23.474;2022-08-19T09:25:00;1.48;;;1.42;;
19388;SDS011;9830;41.876;23.474;2022-08-19T09:27:26;1.38;;;1.38;;
19388;SDS011;9830;41.876;23.474;2022-08-19T09:29:53;1.60;;;0.82;;
19388;SDS011;9830;41.876;23.474;2022-08-19T09:32:20;1.42;;;1.42;;
19388;SDS011;9830;41.876;23.474;2022-08-19T09:34:47;1.88;;;1.77;;
19388;SDS011;9830;41.876;23.474;2022-08-19T09:37:13;0.90;;;0.90;;
19388;SDS011;9830;41.876;23.474;2022-08-19T09:39:39;1.10;;;1.10;;
19388;SDS011;9830;41.876;23.474;2022-08-19T09:42:06;1.35;;;1.35;;
19388;SDS011;9830;41.876;23.474;2022-08-19T09:44:37;1.00;;;1.00;;
19388;SDS011;9830;41.876;23.474;2022-08-19T09:47:03;1.40;;;1.30;;
19388;SDS011;9830;41.876;23.474;2022-08-19T09:49:29;1.83;;;1.70;;
19388;SDS011;9830;41.876;23.474;2022-08-19T09:51:56;1.30;;;1.30;;
19388;SDS011;9830;41.876;23.474;2022-08-19T09:54:22;0.77;;;0.77;;
19388;SDS011;9830;41.876;23.474;2022-08-19T09:56:48;2.00;;;1.10;;
19388;SDS011;9830;41.876;23.474;2022-08-19T09:59:14;0.90;;;0.90;;
19388;SDS011;9830;41.876;23.474;2022-08-19T10:01:40;0.60;;;0.60;;
19388;SDS011;9830;41.876;23.474;2022-08-19T10:04:06;1.48;;;1.02;;
19388;SDS011;9830;41.876;23.474;2022-08-19T10:06:34;1.00;;;0.90;;
19388;SDS011;9830;41.876;23.474;2022-08-19T10:09:02;1.17;;;1.08;;
19388;SDS011;9830;41.876;23.474;2022-08-19T10:11:29;0.85;;;0.85;;
19388;SDS011;9830;41.876;23.474;2022-08-19T10:13:55;3.47;;;1.65;;
19388;SDS011;9830;41.876;23.474;2022-08-19T10:16:21;17.20;;;1.88;;
19388;SDS011;9830;41.876;23.474;2022-08-19T10:18:48;3.20;;;1.55;;
19388;SDS011;9830;41.876;23.474;2022-08-19T10:23:46;0.77;;;0.77;;
19388;SDS011;9830;41.876;23.474;2022-08-19T10:26:14;5.68;;;1.02;;
19388;SDS011;9830;41.876;23.474;2022-08-19T10:28:45;1.27;;;1.23;;
19388;SDS011;9830;41.876;23.474;2022-08-19T10:31:12;0.90;;;0.90;;
19388;SDS011;9830;41.876;23.474;2022-08-19T10:33:44;1.75;;;0.85;;
19388;SDS011;9830;41.876;23.474;2022-08-19T10:36:15;1.65;;;1.42;;
19388;SDS011;9830;41.876;23.474;2022-08-19T10:38:43;0.45;;;0.45;;
19388;SDS011;9830;41.876;23.474;2022-08-19T10:41:15;0.77;;;0.77;;
19388;SDS011;9830;41.876;23.474;2022-08-19T10:43:56;1.20;;;1.10;;
19388;SDS011;9830;41.876;23.474;2022-08-19T10:46:24;0.50;;;0.50;;
19388;SDS011;9830;41.876;23.474;2022-08-19T10:48:51;1.20;;;1.20;;
19388;SDS011;9830;41.876;23.474;2022-08-19T10:51:17;0.77;;;0.77;;
19388;SDS011;9830;41.876;23.474;2022-08-19T10:54:02;2.97;;;0.88;;
19388;SDS011;9830;41.876;23.474;2022-08-19T10:56:28;1.15;;;0.80;;
19388;SDS011;9830;41.876;23.474;2022-08-19T10:59:13;1.00;;;1.00;;
19388;SDS011;9830;41.876;23.474;2022-08-19T11:01:40;0.45;;;0.45;;
19388;SDS011;9830;41.876;23.474;2022-08-19T11:04:08;0.85;;;0.85;;
19388;SDS011;9830;41.876;23.474;2022-08-19T11:06:38;0.90;;;0.90;;
19388;SDS011;9830;41.876;23.474;2022-08-19T11:09:05;0.98;;;0.80;;
19388;SDS011;9830;41.876;23.474;2022-08-19T11:11:32;0.88;;;0.88;;
19388;SDS011;9830;41.876;23.474;2022-08-19T11:14:04;1.58;;;1.25;;
19388;SDS011;9830;41.876;23.474;2022-08-19T11:16:30;1.38;;;1.13;;
19388;SDS011;9830;41.876;23.474;2022-08-19T11:18:57;1.63;;;1.35;;
19388;SDS011;9830;41.876;23.474;2022-08-19T11:21:25;2.28;;;1.38;;
19388;SDS011;9830;41.876;23.474;2022-08-19T11:23:53;1.35;;;1.08;;
19388;SDS011;9830;41.876;23.474;2022-08-19T11:26:20;1.30;;;0.95;;
19388;SDS011;9830;41.876;23.474;2022-08-19T11:28:47;4.38;;;1.60;;
19388;SDS011;9830;41.876;23.474;2022-08-19T11:31:14;1.30;;;1.30;;
19388;SDS011;9830;41.876;23.474;2022-08-19T11:33:43;1.02;;;0.95;;
19388;SDS011;9830;41.876;23.474;2022-08-19T11:36:11;1.02;;;1.02;;
19388;SDS011;9830;41.876;23.474;2022-08-19T11:38:37;0.82;;;0.82;;
19388;SDS011;9830;41.876;23.474;2022-08-19T11:41:05;0.82;;;0.82;;
19388;SDS011;9830;41.876;23.474;2022-08-19T11:43:35;1.27;;;1.17;;
19388;SDS011;9830;41.876;23.474;2022-08-19T11:46:08;1.08;;;1.08;;
19388;SDS011;9830;41.876;23.474;2022-08-19T11:48:35;2.42;;;1.05;;
19388;SDS011;9830;41.876;23.474;2022-08-19T11:51:06;2.72;;;1.10;;
19388;SDS011;9830;41.876;23.474;2022-08-19T11:53:34;3.22;;;1.20;;
19388;SDS011;9830;41.876;23.474;2022-08-19T11:56:00;2.10;;;1.10;;
19388;SDS011;9830;41.876;23.474;2022-08-19T11:58:26;1.20;;;1.20;;
19388;SDS011;9830;41.876;23.474;2022-08-19T12:00:54;1.80;;;1.00;;
19388;SDS011;9830;41.876;23.474;2022-08-19T12:03:20;11.02;;;1.20;;
19388;SDS011;9830;41.876;23.474;2022-08-19T12:05:46;0.88;;;0.88;;
19388;SDS011;9830;41.876;23.474;2022-08-19T12:08:11;0.90;;;0.90;;
19388;SDS011;9830;41.876;23.474;2022-08-19T12:10:40;1.38;;;1.25;;
19388;SDS011;9830;41.876;23.474;2022-08-19T12:13:07;1.40;;;1.10;;
19388;SDS011;9830;41.876;23.474;2022-08-19T12:15:37;1.27;;;1.17;;
19388;SDS011;9830;41.876;23.474;2022-08-19T12:18:08;1.05;;;1.05;;
19388;SDS011;9830;41.876;23.474;2022-08-19T12:20:35;0.95;;;0.95;;
19388;SDS011;9830;41.876;23.474;2022-08-19T12:23:03;2.03;;;1.92;;
19388;SDS011;9830;41.876;23.474;2022-08-19T12:25:29;0.88;;;0.88;;
19388;SDS011;9830;41.876;23.474;2022-08-19T12:27:56;0.63;;;0.63;;
19388;SDS011;9830;41.876;23.474;2022-08-19T12:30:21;1.02;;;0.98;;
19388;SDS011;9830;41.876;23.474;2022-08-19T12:32:47;5.57;;;0.70;;
19388;SDS011;9830;41.876;23.474;2022-08-19T12:35:13;1.38;;;1.27;;
19388;SDS011;9830;41.876;23.474;2022-08-19T12:37:39;1.27;;;1.17;;
19388;SDS011;9830;41.876;23.474;2022-08-19T12:40:07;0.70;;;0.70;;
19388;SDS011;9830;41.876;23.474;2022-08-19T12:42:33;1.42;;;1.35;;
19388;SDS011;9830;41.876;23.474;2022-08-19T12:44:59;0.98;;;0.98;;
19388;SDS011;9830;41.876;23.474;2022-08-19T12:47:25;0.85;;;0.85;;
19388;SDS011;9830;41.876;23.474;2022-08-19T12:49:51;6.32;;;1.15;;
19388;SDS011;9830;41.876;23.474;2022-08-19T12:52:17;4.47;;;1.55;;
19388;SDS011;9830;41.876;23.474;2022-08-19T12:54:46;1.70;;;1.00;;
19388;SDS011;9830;41.876;23.474;2022-08-19T12:57:12;7.82;;;1.23;;
19388;SDS011;9830;41.876;23.474;2022-08-19T12:59:38;1.52;;;1.02;;
19388;SDS011;9830;41.876;23.474;2022-08-19T13:02:04;1.02;;;1.00;;
19388;SDS011;9830;41.876;23.474;2022-08-19T13:04:32;0.75;;;0.75;;
19388;SDS011;9830;41.876;23.474;2022-08-19T13:07:01;3.80;;;1.42;;
19388;SDS011;9830;41.876;23.474;2022-08-19T13:09:27;1.52;;;1.42;;
19388;SDS011;9830;41.876;23.474;2022-08-19T13:11:53;1.35;;;1.23;;
19388;SDS011;9830;41.876;23.474;2022-08-19T13:14:18;0.80;;;0.80;;
19388;SDS011;9830;41.876;23.474;2022-08-19T13:16:44;1.45;;;1.25;;
19388;SDS011;9830;41.876;23.474;2022-08-19T13:19:11;1.00;;;1.00;;
19388;SDS011;9830;41.876;23.474;2022-08-19T13:21:38;4.35;;;1.40;;
19388;SDS011;9830;41.876;23.474;2022-08-19T13:24:04;1.10;;;1.10;;
19388;SDS011;9830;41.876;23.474;2022-08-19T13:26:31;0.77;;;0.77;;
19388;SDS011;9830;41.876;23.474;2022-08-19T13:28:56;1.08;;;1.08;;
19388;SDS011;9830;41.876;23.474;2022-08-19T13:31:41;0.77;;;0.77;;
19388;SDS011;9830;41.876;23.474;2022-08-19T13:34:39;5.68;;;1.98;;
19388;SDS011;9830;41.876;23.474;2022-08-19T13:37:05;0.75;;;0.75;;
19388;SDS011;9830;41.876;23.474;2022-08-19T13:39:31;1.20;;;1.20;;
19388;SDS011;9830;41.876;23.474;2022-08-19T13:41:58;0.63;;;0.63;;
19388;SDS011;9830;41.876;23.474;2022-08-19T13:44:24;6.80;;;1.80;;
19388;SDS011;9830;41.876;23.474;2022-08-19T13:46:51;2.05;;;1.63;;
19388;SDS011;9830;41.876;23.474;2022-08-19T13:49:18;1.35;;;1.20;;
19388;SDS011;9830;41.876;23.474;2022-08-19T13:51:45;4.88;;;1.80;;
19388;SDS011;9830;41.876;23.474;2022-08-19T13:54:11;0.90;;;0.90;;
19388;SDS011;9830;41.876;23.474;2022-08-19T13:56:41;5.95;;;2.03;;
19388;SDS011;9830;41.876;23.474;2022-08-19T13:59:09;1.42;;;1.33;;
19388;SDS011;9830;41.876;23.474;2022-08-19T14:01:34;2.67;;;1.23;;
19388;SDS011;9830;41.876;23.474;2022-08-19T14:04:01;2.03;;;0.75;;
19388;SDS011;9830;41.876;23.474;2022-08-19T14:06:27;1.48;;;1.40;;
19388;SDS011;9830;41.876;23.474;2022-08-19T14:08:53;1.20;;;1.17;;
19388;SDS011;9830;41.876;23.474;2022-08-19T14:11:19;0.85;;;0.85;;
19388;SDS011;9830;41.876;23.474;2022-08-19T14:13:44;1.45;;;1.35;;
19388;SDS011;9830;41.876;23.474;2022-08-19T14:16:12;0.95;;;0.95;;
19388;SDS011;9830;41.876;23.474;2022-08-19T14:18:42;1.15;;;1.15;;
19388;SDS011;9830;41.876;23.474;2022-08-19T14:21:14;1.48;;;1.38;;
19388;SDS011;9830;41.876;23.474;2022-08-19T14:23:47;1.67;;;1.58;;
19388;SDS011;9830;41.876;23.474;2022-08-19T14:26:14;0.98;;;0.90;;
19388;SDS011;9830;41.876;23.474;2022-08-19T14:28:41;1.55;;;1.45;;
19388;SDS011;9830;41.876;23.474;2022-08-19T14:31:09;13.55;;;1.60;;
19388;SDS011;9830;41.876;23.474;2022-08-19T14:33:36;2.95;;;1.30;;
19388;SDS011;9830;41.876;23.474;2022-08-19T14:36:02;1.33;;;1.17;;
19388;SDS011;9830;41.876;23.474;2022-08-19T14:38:28;2.47;;;1.88;;
19388;SDS011;9830;41.876;23.474;2022-08-19T14:41:05;1.10;;;1.00;;
19388;SDS011;9830;41.876;23.474;2022-08-19T14:43:32;2.63;;;1.67;;
19388;SDS011;9830;41.876;23.474;2022-08-19T14:45:59;2.08;;;1.77;;
19388;SDS011;9830;41.876;23.474;2022-08-19T14:48:24;3.42;;;2.05;;
19388;SDS011;9830;41.876;23.474;2022-08-19T14:50:51;1.23;;;1.13;;
19388;SDS011;9830;41.876;23.474;2022-08-19T14:53:17;1.42;;;1.35;;
19388;SDS011;9830;41.876;23.474;2022-08-19T14:55:43;1.13;;;1.13;;
19388;SDS011;9830;41.876;23.474;2022-08-19T14:58:10;1.38;;;1.13;;
19388;SDS011;9830;41.876;23.474;2022-08-19T15:00:37;0.65;;;0.65;;
19388;SDS011;9830;41.876;23.474;2022-08-19T15:03:03;0.85;;;0.85;;
19388;SDS011;9830;41.876;23.474;2022-08-19T15:05:28;5.32;;;2.75;;
19388;SDS011;9830;41.876;23.474;2022-08-19T15:07:54;0.73;;;0.73;;
19388;SDS011;9830;41.876;23.474;2022-08-19T15:10:21;1.95;;;1.48;;
19388;SDS011;9830;41.876;23.474;2022-08-19T15:12:49;1.23;;;1.23;;
19388;SDS011;9830;41.876;23.474;2022-08-19T15:15:15;0.80;;;0.80;;
19388;SDS011;9830;41.876;23.474;2022-08-19T15:17:43;5.18;;;1.15;;